createdAt,value
2019-01-22T00:00:57.073Z,-3.40
2019-01-22T00:03:24.784Z,-3.40
2019-01-22T00:05:51.359Z,-3.40
2019-01-22T00:08:18.004Z,-3.40
2019-01-22T00:10:46.336Z,-3.40
2019-01-22T00:13:12.992Z,-3.40
2019-01-22T00:15:39.396Z,-3.30
2019-01-22T00:18:06.028Z,-3.30
2019-01-22T00:20:32.636Z,-3.30
2019-01-22T00:23:02.826Z,-3.20
2019-01-22T00:25:27.691Z,-3.30
2019-01-22T00:27:54.610Z,-3.30
2019-01-22T00:30:21.604Z,-3.30
2019-01-22T00:32:49.196Z,-2.80
2019-01-22T00:35:15.822Z,-3.30
2019-01-22T00:37:42.449Z,-3.40
2019-01-22T00:40:12.315Z,-3.40
2019-01-22T00:42:40.394Z,-2.90
2019-01-22T00:45:07.138Z,-3.40
2019-01-22T00:47:33.624Z,-2.70
2019-01-22T00:50:00.311Z,-3.40
2019-01-22T00:52:26.928Z,-3.40
2019-01-22T00:54:53.505Z,-3.50
2019-01-22T00:57:21.384Z,-2.80
2019-01-22T00:59:48.261Z,-3.50
2019-01-22T01:02:14.746Z,-3.40
2019-01-22T01:04:41.367Z,-3.50
2019-01-22T01:07:08.005Z,-3.50
2019-01-22T01:09:35.942Z,-2.40
2019-01-22T01:12:02.621Z,-3.50
2019-01-22T01:14:29.340Z,-3.50
2019-01-22T01:16:55.917Z,-1.70
2019-01-22T01:19:23.619Z,-3.60
2019-01-22T01:21:50.286Z,-3.60
2019-01-22T01:24:17.230Z,-3.70
2019-01-22T01:26:44.131Z,-3.60
2019-01-22T01:29:12.127Z,-3.60
2019-01-22T01:31:39.061Z,-3.50
2019-01-22T01:34:05.697Z,-3.60
2019-01-22T01:36:32.188Z,-2.70
2019-01-22T01:38:58.819Z,-3.70
2019-01-22T01:41:25.441Z,-3.60
2019-01-22T01:43:52.114Z,-3.60
2019-01-22T01:46:18.716Z,-3.60
2019-01-22T01:48:45.265Z,-3.60
2019-01-22T01:51:11.892Z,-1.70
2019-01-22T01:53:39.840Z,-3.50
2019-01-22T01:56:06.603Z,-3.40
2019-01-22T01:58:35.019Z,-3.40
2019-01-22T02:01:01.920Z,-3.50
2019-01-22T02:03:28.602Z,-3.50
2019-01-22T02:05:57.567Z,-3.50
2019-01-22T02:08:25.524Z,-3.50
2019-01-22T02:10:52.020Z,-3.40
2019-01-22T02:13:18.892Z,-3.30
2019-01-22T02:16:07.143Z,-3.40
2019-01-22T02:18:52.670Z,-3.40
2019-01-22T02:21:39.276Z,-3.50
2019-01-22T02:24:40.349Z,-3.40
2019-01-22T02:27:27.457Z,-3.50
2019-01-22T02:30:18.647Z,-3.50
2019-01-22T02:32:51.941Z,-3.50
2019-01-22T02:35:34.411Z,-3.60
2019-01-22T02:38:16.783Z,-3.60
2019-01-22T02:40:50.064Z,-3.60
2019-01-22T02:43:26.470Z,-3.70
2019-01-22T02:45:56.730Z,-3.60
2019-01-22T02:48:32.696Z,-3.70
2019-01-22T02:51:24.399Z,-3.70
2019-01-22T02:53:56.092Z,-3.70
2019-01-22T02:56:32.082Z,-3.70
2019-01-22T02:59:20.436Z,-3.70
2019-01-22T03:02:07.228Z,-3.70
2019-01-22T03:04:40.601Z,-3.70
2019-01-22T03:07:27.456Z,-3.70
2019-01-22T03:10:16.727Z,-3.70
2019-01-22T03:13:02.342Z,-3.70
2019-01-22T03:16:07.829Z,-3.80
2019-01-22T03:18:47.443Z,-3.80
2019-01-22T03:21:24.811Z,-3.80
2019-01-22T03:23:58.037Z,-3.80
2019-01-22T03:26:40.503Z,-3.80
2019-01-22T03:29:22.735Z,-3.30
2019-01-22T03:31:58.896Z,-3.80
2019-01-22T03:34:59.619Z,-3.80
2019-01-22T03:37:33.044Z,-3.70
2019-01-22T03:40:03.420Z,-3.40
2019-01-22T03:42:54.953Z,-3.20
2019-01-22T03:45:30.990Z,-3.70
2019-01-22T03:48:07.023Z,-3.70
2019-01-22T03:50:46.337Z,-3.60
2019-01-22T03:53:31.746Z,-3.70
2019-01-22T03:56:28.731Z,-3.60
2019-01-22T03:58:55.397Z,-3.80
2019-01-22T04:01:22.226Z,-3.70
2019-01-22T04:03:48.738Z,-3.40
2019-01-22T04:06:16.242Z,-3.60
2019-01-22T04:08:42.801Z,-2.60
2019-01-22T04:11:10.182Z,-3.50
2019-01-22T04:13:37.118Z,-3.50
2019-01-22T04:16:03.810Z,-3.50
2019-01-22T04:18:30.515Z,-3.60
2019-01-22T04:20:57.741Z,-2.50
2019-01-22T04:23:27.943Z,-3.60
2019-01-22T04:26:16.401Z,-3.60
2019-01-22T04:28:58.885Z,-3.70
2019-01-22T04:31:35.040Z,-3.60
2019-01-22T04:34:14.355Z,-3.60
2019-01-22T04:37:16.920Z,-3.60
2019-01-22T04:40:14.719Z,-3.60
2019-01-22T04:42:50.693Z,-3.60
2019-01-22T04:45:53.565Z,-3.60
2019-01-22T04:48:41.608Z,-3.60
2019-01-22T04:51:17.430Z,-3.60
2019-01-22T04:53:53.449Z,-3.70
2019-01-22T04:56:27.056Z,-3.70
2019-01-22T04:59:00.028Z,-3.70
2019-01-22T05:01:48.389Z,-3.70
2019-01-22T05:04:24.226Z,-3.70
2019-01-22T05:07:06.812Z,-3.20
2019-01-22T05:10:03.277Z,-3.60
2019-01-22T05:13:02.323Z,-3.60
2019-01-22T05:15:53.280Z,-5.20
2019-01-22T05:18:57.277Z,-3.70
2019-01-22T05:21:48.528Z,-3.70
2019-01-22T05:24:34.116Z,-3.70
2019-01-22T05:27:10.680Z,-3.70
2019-01-22T05:30:00.875Z,-3.70
2019-01-22T05:32:33.936Z,-3.70
2019-01-22T05:35:21.959Z,-3.70
2019-01-22T05:38:08.645Z,-3.70
2019-01-22T05:41:01.359Z,-3.70
2019-01-22T05:43:40.142Z,-3.60
2019-01-22T05:46:10.423Z,-3.70
2019-01-22T05:48:47.296Z,-3.60
2019-01-22T05:51:29.427Z,-3.70
2019-01-22T05:54:24.837Z,-3.60
2019-01-22T05:56:49.635Z,-3.60
2019-01-22T05:59:43.562Z,-3.60
2019-01-22T06:02:12.416Z,-3.60
2019-01-22T06:05:04.006Z,-3.50
2019-01-22T06:07:40.172Z,-3.60
2019-01-22T06:10:30.345Z,-3.50
2019-01-22T06:13:09.001Z,-3.50
2019-01-22T06:16:03.799Z,-3.50
2019-01-22T06:18:40.772Z,-3.50
2019-01-22T06:21:15.187Z,-3.40
2019-01-22T06:24:16.084Z,-2.40
2019-01-22T06:26:46.288Z,-3.50
2019-01-22T06:29:29.158Z,-3.50
2019-01-22T06:32:02.050Z,-3.50
2019-01-22T06:34:49.867Z,-3.50
2019-01-22T06:37:23.167Z,-3.50
2019-01-22T06:39:55.299Z,-3.50
2019-01-22T06:42:43.956Z,-3.50
2019-01-22T06:45:26.227Z,-3.50
2019-01-22T06:48:14.783Z,-3.50
2019-01-22T06:50:53.677Z,-3.50
2019-01-22T06:53:43.124Z,-3.40
2019-01-22T06:56:19.579Z,-3.40
2019-01-22T06:58:58.523Z,-3.40
2019-01-22T07:02:03.600Z,-3.30
2019-01-22T07:04:49.024Z,-3.30
2019-01-22T07:07:45.440Z,-3.30
2019-01-22T07:10:15.819Z,-3.40
2019-01-22T07:12:49.415Z,-3.20
2019-01-22T07:15:25.435Z,-3.20
2019-01-22T07:18:10.906Z,-3.10
2019-01-22T07:20:51.447Z,-3.00
2019-01-22T07:23:30.015Z,-3.00
2019-01-22T07:26:09.450Z,-2.90
2019-01-22T07:28:39.753Z,-2.90
2019-01-22T07:31:25.108Z,-2.70
2019-01-22T07:34:10.360Z,-2.90
2019-01-22T07:36:43.241Z,-2.80
2019-01-22T07:39:25.731Z,-2.80
2019-01-22T07:42:18.804Z,-2.80
2019-01-22T07:44:52.062Z,-2.70
2019-01-22T07:47:22.239Z,-2.70
2019-01-22T07:50:13.600Z,-2.70
2019-01-22T07:52:53.165Z,-2.70
2019-01-22T07:55:38.840Z,-2.70
2019-01-22T07:58:09.087Z,-3.00
2019-01-22T08:00:45.334Z,-2.60
2019-01-22T08:03:20.461Z,-2.60
2019-01-22T08:05:52.640Z,-2.50
2019-01-22T08:08:30.388Z,-2.50
2019-01-22T08:11:09.295Z,-2.50
2019-01-22T08:13:54.544Z,-2.40
2019-01-22T08:16:53.698Z,-1.90
2019-01-22T08:19:29.215Z,-2.40
2019-01-22T08:22:18.530Z,-2.40
2019-01-22T08:25:00.684Z,-2.30
2019-01-22T08:27:47.931Z,-2.20
2019-01-22T08:30:27.008Z,-1.90
2019-01-22T08:33:17.152Z,-2.10
2019-01-22T08:36:02.557Z,-2.00
2019-01-22T08:38:35.724Z,-1.90
2019-01-22T08:41:29.918Z,-1.80
2019-01-22T08:44:17.124Z,-1.90
2019-01-22T08:46:47.329Z,-1.50
2019-01-22T08:49:20.357Z,-1.50
2019-01-22T08:52:09.004Z,-1.30
2019-01-22T08:54:51.434Z,-1.40
2019-01-22T08:57:51.450Z,-1.30
2019-01-22T09:00:28.374Z,-1.30
2019-01-22T09:03:18.438Z,-1.30
2019-01-22T09:05:54.734Z,-1.20
2019-01-22T09:08:43.136Z,-1.20
2019-01-22T09:11:34.829Z,-0.90
2019-01-22T09:14:16.566Z,-1.10
2019-01-22T09:17:05.352Z,-1.10
2019-01-22T09:19:41.525Z,-1.00
2019-01-22T09:22:26.811Z,-1.00
2019-01-22T09:25:00.942Z,-0.70
2019-01-22T09:27:37.043Z,-0.40
2019-01-22T09:30:16.455Z,-0.40
2019-01-22T09:32:46.660Z,-0.40
2019-01-22T09:35:29.220Z,-0.10
2019-01-22T09:37:56.603Z,-0.20
2019-01-22T09:40:24.508Z,-0.30
2019-01-22T09:42:51.060Z,0.00
2019-01-22T09:45:17.593Z,-0.10
2019-01-22T09:47:43.976Z,-0.20
2019-01-22T09:50:10.570Z,0.70
2019-01-22T09:52:37.194Z,0.30
2019-01-22T09:55:08.865Z,0.10
2019-01-22T09:57:35.637Z,0.30
2019-01-22T10:00:05.882Z,0.40
2019-01-22T10:02:32.302Z,0.50
2019-01-22T10:04:58.794Z,0.60
2019-01-22T10:07:25.165Z,0.60
2019-01-22T10:09:51.819Z,0.50
2019-01-22T10:12:18.431Z,0.40
2019-01-22T10:14:45.032Z,0.50
2019-01-22T10:17:12.613Z,0.50
2019-01-22T10:19:39.339Z,0.60
2019-01-22T10:22:05.975Z,0.80
2019-01-22T10:24:32.485Z,1.10
2019-01-22T10:26:59.029Z,1.30
2019-01-22T10:29:26.439Z,1.30
2019-01-22T10:31:52.923Z,1.20
2019-01-22T10:34:19.425Z,1.20
2019-01-22T10:36:46.044Z,1.20
2019-01-22T10:39:12.583Z,1.30
2019-01-22T10:41:39.116Z,1.40
2019-01-22T10:44:05.798Z,1.50
2019-01-22T10:46:32.456Z,1.40
2019-01-22T10:48:59.069Z,1.30
2019-01-22T10:51:25.492Z,1.10
2019-01-22T10:53:51.877Z,1.60
2019-01-22T10:56:18.404Z,1.00
2019-01-22T10:58:45.043Z,1.00
2019-01-22T11:01:11.684Z,1.00
2019-01-22T11:03:38.287Z,0.90
2019-01-22T11:06:04.872Z,1.00
2019-01-22T11:08:31.313Z,0.90
2019-01-22T11:10:57.678Z,0.90
2019-01-22T11:13:24.200Z,0.80
2019-01-22T11:15:50.831Z,0.90
2019-01-22T11:18:17.436Z,0.70
2019-01-22T11:20:43.968Z,0.80
2019-01-22T11:23:10.684Z,0.80
2019-01-22T11:25:43.513Z,1.00
2019-01-22T11:28:06.197Z,0.80
2019-01-22T11:30:32.729Z,0.80
2019-01-22T11:32:59.236Z,0.70
2019-01-22T11:35:25.928Z,0.90
2019-01-22T11:37:53.295Z,0.90
2019-01-22T11:40:23.080Z,0.90
2019-01-22T11:42:49.736Z,0.60
2019-01-22T11:45:16.335Z,0.60
2019-01-22T11:47:42.849Z,0.60
2019-01-22T11:50:12.469Z,0.60
2019-01-22T11:52:38.967Z,0.60
2019-01-22T11:55:05.700Z,1.00
2019-01-22T11:57:32.319Z,0.50
2019-01-22T11:59:58.904Z,0.50
2019-01-22T12:02:31.788Z,0.30
2019-01-22T12:04:53.530Z,0.40
2019-01-22T12:07:19.935Z,0.10
2019-01-22T12:09:46.624Z,0.40
2019-01-22T12:12:13.190Z,0.40
2019-01-22T12:14:39.764Z,0.50
2019-01-22T12:17:06.378Z,0.60
2019-01-22T12:19:32.882Z,0.90
2019-01-22T12:21:59.467Z,1.00
2019-01-22T12:24:26.053Z,1.10
2019-01-22T12:26:52.555Z,1.00
2019-01-22T12:29:18.932Z,1.00
2019-01-22T12:31:46.187Z,1.00
2019-01-22T12:34:12.682Z,1.10
2019-01-22T12:36:39.645Z,1.10
2019-01-22T12:39:06.605Z,1.20
2019-01-22T12:41:33.182Z,1.40
2019-01-22T12:43:59.579Z,1.30
2019-01-22T12:46:25.972Z,1.30
2019-01-22T12:48:52.458Z,1.50
2019-01-22T12:51:19.075Z,1.10
2019-01-22T12:53:45.873Z,1.20
2019-01-22T12:56:12.479Z,1.10
2019-01-22T12:58:40.315Z,1.20
2019-01-22T13:01:06.896Z,1.30
2019-01-22T13:03:33.300Z,1.40
2019-01-22T13:05:59.888Z,1.30
2019-01-22T13:08:26.537Z,0.40
2019-01-22T13:10:52.989Z,1.30
2019-01-22T13:13:19.422Z,1.20
2019-01-22T13:15:46.043Z,1.30
2019-01-22T13:18:12.730Z,1.20
2019-01-22T13:20:39.383Z,1.20
2019-01-22T13:23:06.000Z,2.10
2019-01-22T13:25:32.584Z,1.10
2019-01-22T13:27:59.288Z,1.00
2019-01-22T13:30:29.684Z,1.00
2019-01-22T13:32:56.414Z,0.90
2019-01-22T13:35:23.000Z,0.90
2019-01-22T13:37:49.703Z,1.00
2019-01-22T13:40:17.614Z,0.90
2019-01-22T13:42:44.480Z,0.90
2019-01-22T13:45:20.936Z,1.00
2019-01-22T13:47:48.531Z,1.00
2019-01-22T13:50:19.668Z,1.00
2019-01-22T13:52:46.316Z,0.90
2019-01-22T13:55:22.046Z,0.80
2019-01-22T13:57:48.823Z,0.90
2019-01-22T14:00:21.318Z,0.90
2019-01-22T14:02:49.694Z,0.90
2019-01-22T14:05:16.350Z,0.80
2019-01-22T14:07:42.784Z,0.80
2019-01-22T14:10:12.899Z,0.60
2019-01-22T14:12:39.729Z,0.60
2019-01-22T14:15:15.815Z,0.70
2019-01-22T14:17:43.494Z,0.60
2019-01-22T14:20:14.375Z,0.60
2019-01-22T14:22:42.497Z,0.60
2019-01-22T14:25:14.512Z,0.50
2019-01-22T14:27:41.124Z,0.40
2019-01-22T14:30:11.538Z,0.40
2019-01-22T14:32:38.184Z,0.40
2019-01-22T14:35:07.084Z,0.40
2019-01-22T14:37:33.717Z,0.40
2019-01-22T14:40:00.322Z,0.40
2019-01-22T14:42:26.789Z,0.40
2019-01-22T14:44:53.214Z,0.40
2019-01-22T14:47:19.846Z,0.40
2019-01-22T14:49:46.389Z,0.40
2019-01-22T14:52:13.029Z,0.40
2019-01-22T14:54:39.516Z,0.40
2019-01-22T14:57:06.106Z,0.40
2019-01-22T14:59:32.734Z,0.30
2019-01-22T15:01:59.232Z,0.40
2019-01-22T15:04:25.752Z,0.30
2019-01-22T15:06:52.215Z,0.20
2019-01-22T15:09:18.756Z,0.20
2019-01-22T15:11:46.695Z,0.20
2019-01-22T15:14:13.193Z,0.30
2019-01-22T15:16:39.785Z,0.20
2019-01-22T15:19:06.417Z,0.30
2019-01-22T15:21:32.792Z,0.20
2019-01-22T15:23:59.222Z,0.10
2019-01-22T15:26:25.722Z,0.00
2019-01-22T15:28:52.366Z,-0.10
2019-01-22T15:31:18.964Z,-0.10
2019-01-22T15:33:45.747Z,-0.20
2019-01-22T15:36:12.155Z,-0.20
2019-01-22T15:38:38.703Z,-0.30
2019-01-22T15:41:06.535Z,-0.30
2019-01-22T15:43:33.077Z,-0.40
2019-01-22T15:45:59.498Z,-0.50
2019-01-22T15:48:26.278Z,-0.50
2019-01-22T15:50:52.997Z,-0.60
2019-01-22T15:53:20.600Z,-0.50
2019-01-22T15:55:48.243Z,-0.60
2019-01-22T15:58:14.978Z,1.60
2019-01-22T16:00:41.694Z,-0.70
2019-01-22T16:03:08.455Z,-0.80
2019-01-22T16:05:35.043Z,-0.80
2019-01-22T16:08:01.545Z,-0.80
2019-01-22T16:10:28.179Z,-0.80
2019-01-22T16:12:54.726Z,-0.70
2019-01-22T16:15:22.812Z,-0.90
2019-01-22T16:17:50.286Z,-0.90
2019-01-22T16:20:19.014Z,-0.90
2019-01-22T16:22:45.768Z,-1.00
2019-01-22T16:25:12.472Z,-1.00
2019-01-22T16:27:39.286Z,-1.00
2019-01-22T16:30:15.225Z,-1.00
2019-01-22T16:32:41.894Z,-1.00
2019-01-22T16:35:10.866Z,-1.00
2019-01-22T16:37:38.541Z,-1.00
2019-01-22T16:40:08.466Z,-1.10
2019-01-22T16:42:34.918Z,-1.00
2019-01-22T16:45:01.526Z,-1.00
2019-01-22T16:47:28.031Z,-1.00
2019-01-22T16:49:54.566Z,-1.00
2019-01-22T16:52:21.120Z,-1.00
2019-01-22T16:54:49.243Z,-1.10
2019-01-22T16:57:15.904Z,-1.10
2019-01-22T16:59:42.580Z,-1.20
2019-01-22T17:02:09.209Z,-1.10
2019-01-22T17:04:35.736Z,-0.90
2019-01-22T17:07:02.465Z,-1.10
2019-01-22T17:09:29.156Z,-1.10
2019-01-22T17:11:56.747Z,-1.10
2019-01-22T17:14:23.420Z,-1.00
2019-01-22T17:16:50.110Z,-1.10
2019-01-22T17:19:16.608Z,-1.10
2019-01-22T17:21:43.168Z,-1.10
2019-01-22T17:24:09.618Z,-1.10
2019-01-22T17:26:36.225Z,-1.10
2019-01-22T17:29:03.292Z,-0.90
2019-01-22T17:31:48.546Z,0.40
2019-01-22T17:34:15.380Z,-1.10
2019-01-22T17:36:42.003Z,-1.10
2019-01-22T17:39:08.642Z,-1.10
2019-01-22T17:41:35.151Z,-1.10
2019-01-22T17:44:01.721Z,-1.10
2019-01-22T17:46:28.238Z,-1.20
2019-01-22T17:48:54.679Z,-0.40
2019-01-22T17:51:21.300Z,-1.30
2019-01-22T17:53:49.364Z,-1.40
2019-01-22T17:56:18.449Z,-1.30
2019-01-22T17:58:45.960Z,-0.50
2019-01-22T18:01:12.591Z,-1.40
2019-01-22T18:03:40.891Z,-1.40
2019-01-22T18:06:07.529Z,-1.40
2019-01-22T18:08:34.005Z,-1.50
2019-01-22T18:11:00.471Z,-1.50
2019-01-22T18:13:27.051Z,-1.50
2019-01-22T18:15:53.587Z,-1.40
2019-01-22T18:18:20.397Z,-1.50
2019-01-22T18:20:46.933Z,-1.60
2019-01-22T18:23:13.390Z,-1.60
2019-01-22T18:25:40.050Z,-1.60
2019-01-22T18:28:06.665Z,-1.60
2019-01-22T18:30:33.536Z,-1.60
2019-01-22T18:33:00.156Z,-1.60
2019-01-22T18:35:38.178Z,-1.60
2019-01-22T18:38:04.709Z,-1.60
2019-01-22T18:40:31.661Z,-1.60
2019-01-22T18:42:58.346Z,-1.60
2019-01-22T18:45:24.991Z,-1.60
2019-01-22T18:47:51.623Z,-1.60
2019-01-22T18:50:20.665Z,-1.70
2019-01-22T18:52:47.257Z,-1.70
2019-01-22T18:55:14.795Z,-1.70
2019-01-22T18:57:41.419Z,-1.70
2019-01-22T19:00:14.188Z,-1.80
2019-01-22T19:02:40.805Z,-1.80
2019-01-22T19:05:07.916Z,-1.80
2019-01-22T19:07:34.422Z,-1.80
2019-01-22T19:10:04.001Z,-1.80
2019-01-22T19:12:30.359Z,-1.90
2019-01-22T19:14:57.036Z,-1.90
2019-01-22T19:17:24.295Z,-1.70
2019-01-22T19:19:50.779Z,-1.90
2019-01-22T19:22:17.338Z,-1.60
2019-01-22T19:24:44.052Z,-1.90
2019-01-22T19:27:10.498Z,-1.90
2019-01-22T19:29:38.502Z,-1.90
2019-01-22T19:32:07.660Z,-2.00
2019-01-22T19:34:34.216Z,-1.90
2019-01-22T19:37:01.023Z,-1.90
2019-01-22T19:39:27.627Z,-1.90
2019-01-22T19:41:54.406Z,-1.90
2019-01-22T19:44:21.491Z,-1.70
2019-01-22T19:46:48.240Z,-1.90
2019-01-22T19:49:14.654Z,-3.00
2019-01-22T19:51:41.313Z,-1.90
2019-01-22T19:54:08.030Z,-1.20
2019-01-22T19:56:34.887Z,-1.90
2019-01-22T19:59:03.292Z,-1.80
2019-01-22T20:01:29.863Z,-2.00
2019-01-22T20:03:56.372Z,-1.90
2019-01-22T20:06:23.014Z,-1.90
2019-01-22T20:08:49.777Z,-1.90
2019-01-22T20:11:16.404Z,-1.90
2019-01-22T20:13:42.776Z,-1.70
2019-01-22T20:16:09.516Z,-1.90
2019-01-22T20:18:36.014Z,-1.90
2019-01-22T20:21:02.677Z,-1.80
2019-01-22T20:23:30.665Z,-1.90
2019-01-22T20:25:57.989Z,-1.40
2019-01-22T20:28:24.812Z,-1.90
2019-01-22T20:30:51.322Z,-1.80
2019-01-22T20:33:17.712Z,-1.90
2019-01-22T20:35:44.163Z,-1.90
2019-01-22T20:38:10.950Z,-1.90
2019-01-22T20:40:37.514Z,-1.90
2019-01-22T20:43:05.523Z,-1.80
2019-01-22T20:45:32.131Z,-1.90
2019-01-22T20:47:58.799Z,-1.80
2019-01-22T20:50:25.427Z,-1.80
2019-01-22T20:52:51.964Z,-1.80
2019-01-22T20:55:20.767Z,-1.70
2019-01-22T20:57:47.330Z,-1.80
2019-01-22T21:00:16.002Z,-1.70
2019-01-22T21:02:42.733Z,-1.80
2019-01-22T21:05:12.889Z,-1.80
2019-01-22T21:07:39.515Z,-1.80
2019-01-22T21:10:12.776Z,-1.80
2019-01-22T21:12:39.503Z,-1.90
2019-01-22T21:15:08.891Z,-1.90
2019-01-22T21:17:36.836Z,-1.90
2019-01-22T21:20:07.099Z,-1.70
2019-01-22T21:22:34.907Z,-1.70
2019-01-22T21:25:01.721Z,-1.90
2019-01-22T21:27:29.601Z,-1.90
2019-01-22T21:29:56.206Z,-1.90
2019-01-22T21:32:22.748Z,-1.90
2019-01-22T21:34:49.330Z,-1.90
2019-01-22T21:37:17.826Z,-1.90
2019-01-22T21:39:44.356Z,-1.90
2019-01-22T21:42:10.942Z,-1.90
2019-01-22T21:44:37.608Z,-1.60
2019-01-22T21:47:04.120Z,-1.90
2019-01-22T21:49:32.215Z,-1.90
2019-01-22T21:51:58.998Z,-1.80
2019-01-22T21:54:25.618Z,-1.60
2019-01-22T21:56:53.314Z,-1.90
2019-01-22T21:59:20.013Z,-1.80
2019-01-22T22:01:47.156Z,-1.30
2019-01-22T22:04:13.684Z,-1.90
2019-01-22T22:06:40.324Z,-2.10
2019-01-22T22:09:07.151Z,-1.70
2019-01-22T22:11:35.604Z,-1.90
2019-01-22T22:14:02.198Z,-1.90
2019-01-22T22:16:29.859Z,-1.80
2019-01-22T22:18:56.445Z,-1.70
2019-01-22T22:21:22.937Z,-1.80
2019-01-22T22:23:49.480Z,-1.80
2019-01-22T22:26:16.095Z,-1.80
2019-01-22T22:28:42.757Z,-1.90
2019-01-22T22:31:09.273Z,-1.80
2019-01-22T22:33:38.001Z,-1.10
2019-01-22T22:36:04.603Z,-1.80
2019-01-22T22:38:31.152Z,-1.80
2019-01-22T22:40:58.794Z,-1.80
2019-01-22T22:43:25.234Z,-1.90
2019-01-22T22:45:52.963Z,-1.80
2019-01-22T22:48:19.541Z,-1.70
2019-01-22T22:50:46.025Z,-1.90
2019-01-22T22:53:12.627Z,-1.70
2019-01-22T22:55:39.222Z,-1.90
2019-01-22T22:58:05.777Z,-1.70
2019-01-22T23:00:39.352Z,-1.80
2019-01-22T23:03:06.606Z,-1.80
2019-01-22T23:05:34.241Z,-1.80
2019-01-22T23:08:00.884Z,-1.80
2019-01-22T23:10:27.550Z,-1.80
2019-01-22T23:12:54.100Z,-1.80
2019-01-22T23:15:20.712Z,-1.80
2019-01-22T23:17:47.480Z,-1.70
2019-01-22T23:20:14.904Z,-1.80
2019-01-22T23:22:41.559Z,-1.80
2019-01-22T23:25:10.047Z,-1.80
2019-01-22T23:27:37.201Z,-0.80
2019-01-22T23:30:06.986Z,-1.80
2019-01-22T23:32:33.673Z,-1.50
2019-01-22T23:35:00.473Z,-1.80
2019-01-22T23:37:27.103Z,-1.80
2019-01-22T23:39:53.528Z,-1.80
2019-01-22T23:42:20.183Z,-0.90
2019-01-22T23:44:48.193Z,-2.20
2019-01-22T23:47:14.756Z,-1.70
2019-01-22T23:49:41.144Z,-1.70
2019-01-22T23:52:07.771Z,-1.00
2019-01-22T23:54:34.401Z,-1.80
2019-01-22T23:57:01.024Z,-1.70
2019-01-22T23:59:27.662Z,-1.70
